KCZZ

Campo Airport

Campo, California, USA
METAR KCZZ 170252Z AUTO 00000KT 13/M10 A3005 RMK AO1 SLP157 T01281100 53015
Observed Flight Rules
Oct-17 @ 02:52 UTC (18 minutes ago)
Temperatures Readings
Current 13°C / 55°F
Dewpoint -10°C / 14°F
Humidity 19%
Altimeter 30.05" Hg
Pressure 1015.7 hPa
Elevation 807
METAR KCZZ 170252Z AUTO 00000KT 13/M10 A3005 RMK AO1 SLP157 T01281100 53015
Observed Flight Rules
Oct-17 @ 02:52 UTC
(18 minutes ago)
Temperature Dewpoint
13°C / 55°F -10°C / 14°F
Humidity Altimeter Pressure
19% 30.05" Hg 1015.7 hPa